createdAt,value
2022-09-12T00:00:14.879Z,5.20
2022-09-12T00:02:42.075Z,4.80
2022-09-12T00:07:55.906Z,5.43
2022-09-12T00:13:10.646Z,5.70
2022-09-12T00:15:42.478Z,5.57
2022-09-12T00:18:13.830Z,5.33
2022-09-12T00:20:47.241Z,6.15
2022-09-12T00:23:14.990Z,6.32
2022-09-12T00:25:47.005Z,5.85
2022-09-12T00:30:44.712Z,6.90
2022-09-12T00:33:12.560Z,5.80
2022-09-12T00:35:47.835Z,6.20
2022-09-12T00:38:16.100Z,7.38
2022-09-12T00:40:43.292Z,6.40
2022-09-12T00:43:37.746Z,6.40
2022-09-12T00:46:14.030Z,7.00
2022-09-12T00:48:49.805Z,5.72
2022-09-12T00:53:48.410Z,6.13
2022-09-12T00:56:17.737Z,5.70
2022-09-12T00:59:17.553Z,6.00
2022-09-12T01:01:46.925Z,5.53
2022-09-12T01:04:14.068Z,6.10
2022-09-12T01:06:43.076Z,6.25
2022-09-12T01:12:02.703Z,6.07
2022-09-12T01:17:17.703Z,5.70
2022-09-12T01:20:26.028Z,6.10
2022-09-12T01:23:04.505Z,6.40
2022-09-12T01:25:35.770Z,6.20
2022-09-12T01:31:05.719Z,6.00
2022-09-12T01:33:55.582Z,6.03
2022-09-12T01:36:28.468Z,5.75
2022-09-12T01:39:02.163Z,5.70
2022-09-12T01:41:44.192Z,4.97
2022-09-12T01:44:35.277Z,5.13
2022-09-12T01:47:19.764Z,5.50
2022-09-12T01:49:49.208Z,5.80
2022-09-12T01:55:27.862Z,5.70
2022-09-12T01:58:13.442Z,5.40
2022-09-12T02:03:47.877Z,6.30
2022-09-12T02:06:38.617Z,6.30
2022-09-12T02:12:04.533Z,6.05
2022-09-12T02:14:39.565Z,5.40
2022-09-12T02:17:10.765Z,5.50
2022-09-12T02:22:35.118Z,7.40
2022-09-12T02:25:03.656Z,7.75
2022-09-12T02:27:38.292Z,7.83
2022-09-12T02:30:09.853Z,5.68
2022-09-12T02:32:54.480Z,5.80
2022-09-12T02:35:32.239Z,5.95
2022-09-12T02:38:25.412Z,6.38
2022-09-12T02:43:39.170Z,6.63
2022-09-12T02:48:56.992Z,5.68
2022-09-12T02:51:24.040Z,5.80
2022-09-12T02:53:51.414Z,6.05
2022-09-12T02:56:30.542Z,6.80
2022-09-12T02:59:05.216Z,7.50
2022-09-12T03:08:07.349Z,7.20
2022-09-12T03:10:58.331Z,15.57
2022-09-12T03:13:30.930Z,8.38
2022-09-12T03:16:16.533Z,7.38
2022-09-12T03:19:07.119Z,7.18
2022-09-12T03:21:43.618Z,11.90
2022-09-12T03:24:19.315Z,12.10
2022-09-12T03:26:58.914Z,11.63
2022-09-12T03:29:27.208Z,7.22
2022-09-12T03:31:56.789Z,8.88
2022-09-12T03:34:25.664Z,8.57
2022-09-12T03:36:53.440Z,7.38
2022-09-12T03:39:20.133Z,7.40
2022-09-12T03:41:46.910Z,7.30
2022-09-12T03:47:00.251Z,8.02
2022-09-12T03:52:13.622Z,9.70
2022-09-12T03:57:27.186Z,14.25
2022-09-12T03:59:53.887Z,10.95
2022-09-12T04:02:20.629Z,12.48
2022-09-12T04:04:47.384Z,13.73
2022-09-12T04:07:14.539Z,12.25
2022-09-12T04:09:41.292Z,10.63
2022-09-12T04:12:08.218Z,12.60
2022-09-12T04:14:34.975Z,13.45
2022-09-12T04:17:02.177Z,14.00
2022-09-12T04:19:28.976Z,13.77
2022-09-12T04:21:55.750Z,15.93
2022-09-12T04:24:22.540Z,17.60
2022-09-12T04:26:49.260Z,16.15
2022-09-12T04:29:16.144Z,15.15
2022-09-12T04:31:43.036Z,14.80
2022-09-12T04:34:10.042Z,13.90
2022-09-12T04:36:37.077Z,12.40
2022-09-12T04:39:05.068Z,14.43
2022-09-12T04:41:37.583Z,13.68
2022-09-12T04:46:59.051Z,14.90
2022-09-12T04:52:12.457Z,12.65
2022-09-12T04:57:25.890Z,13.05
2022-09-12T05:02:40.236Z,14.73
2022-09-12T05:05:07.854Z,13.82
2022-09-12T05:07:35.017Z,13.48
2022-09-12T05:10:02.096Z,13.75
2022-09-12T05:12:10.947Z,0
2022-09-12T05:12:28.855Z,13.43
2022-09-12T05:14:55.649Z,13.70
2022-09-12T05:17:22.349Z,13.70
2022-09-12T05:19:49.115Z,13.45
2022-09-12T05:22:15.829Z,13.50
2022-09-12T05:24:42.841Z,14.60
2022-09-12T05:27:11.157Z,14.68
2022-09-12T05:29:37.845Z,14.60
2022-09-12T05:32:04.761Z,13.80
2022-09-12T05:34:31.479Z,12.77
2022-09-12T05:36:58.250Z,13.27
2022-09-12T05:39:24.989Z,12.05
2022-09-12T05:44:18.357Z,11.13
2022-09-12T05:46:45.600Z,10.80
2022-09-12T05:49:13.736Z,9.55
2022-09-12T05:51:45.396Z,9.30
2022-09-12T05:54:14.785Z,9.55
2022-09-12T05:56:43.557Z,9.40
2022-09-12T05:59:19.304Z,10.45
2022-09-12T06:04:13.575Z,11.13
2022-09-12T06:06:42.896Z,12.20
2022-09-12T06:11:56.358Z,16.13
2022-09-12T06:17:10.025Z,15.00
2022-09-12T06:19:37.143Z,11.77
2022-09-12T06:22:03.920Z,15.55
2022-09-12T06:24:30.635Z,19.70
2022-09-12T06:26:57.391Z,11.25
2022-09-12T06:29:24.249Z,9.47
2022-09-12T06:31:50.990Z,14.13
2022-09-12T06:34:17.758Z,12.43
2022-09-12T06:36:46.894Z,11.10
2022-09-12T06:39:16.302Z,8.50
2022-09-12T06:41:44.236Z,8.02
2022-09-12T06:44:14.747Z,8.70
2022-09-12T06:46:42.180Z,9.40
2022-09-12T06:49:08.992Z,11.67
2022-09-12T06:51:35.844Z,11.02
2022-09-12T06:54:03.518Z,10.40
2022-09-12T06:56:30.924Z,13.93
2022-09-12T06:58:58.801Z,13.25
2022-09-12T07:01:30.713Z,11.30
2022-09-12T07:06:49.197Z,8.88
2022-09-12T07:12:03.217Z,6.53
2022-09-12T07:14:30.194Z,6.55
2022-09-12T07:16:56.973Z,5.90
2022-09-12T07:19:23.703Z,4.97
2022-09-12T07:21:52.431Z,3.00
2022-09-12T07:24:21.991Z,3.20
2022-09-12T07:26:48.701Z,2.83
2022-09-12T07:32:03.924Z,2.23
2022-09-12T07:34:30.658Z,2.40
2022-09-12T07:35:00.713Z,0
2022-09-12T07:36:57.418Z,2.05
2022-09-12T07:39:24.155Z,2.05
2022-09-12T07:41:50.906Z,1.90
2022-09-12T07:44:17.630Z,2.00
2022-09-12T07:46:44.354Z,2.00
2022-09-12T07:49:12.537Z,2.17
2022-09-12T07:51:39.247Z,2.17
2022-09-12T07:54:09.598Z,1.60
2022-09-12T07:56:39.081Z,1.50
2022-09-12T07:59:06.050Z,1.80
2022-09-12T08:01:32.844Z,1.58
2022-09-12T08:04:00.571Z,1.45
2022-09-12T08:06:29.283Z,1.40
2022-09-12T08:08:57.462Z,1.30
2022-09-12T08:11:25.637Z,1.45
2022-09-12T08:13:55.743Z,1.50
2022-09-12T08:16:24.845Z,1.40
2022-09-12T08:18:51.554Z,1.60
2022-09-12T08:21:26.743Z,1.45
2022-09-12T08:23:58.351Z,1.50
2022-09-12T08:26:25.392Z,3.87
2022-09-12T08:28:52.303Z,2.88
2022-09-12T08:31:21.183Z,1.80
2022-09-12T08:33:48.096Z,1.40
2022-09-12T08:36:17.125Z,1.58
2022-09-12T08:38:46.057Z,1.48
2022-09-12T08:41:18.528Z,1.40
2022-09-12T08:44:09.089Z,1.20
2022-09-12T08:46:45.215Z,1.40
2022-09-12T08:49:16.988Z,1.80
2022-09-12T08:51:44.014Z,1.70
2022-09-12T08:54:25.201Z,1.70
2022-09-12T08:56:58.008Z,3.00
2022-09-12T08:59:24.858Z,1.48
2022-09-12T09:01:54.532Z,1.90
2022-09-12T09:04:28.876Z,1.33
2022-09-12T09:07:04.880Z,1.00
2022-09-12T09:09:50.183Z,1.70
2022-09-12T09:12:29.195Z,2.25
2022-09-12T09:15:17.613Z,2.33
2022-09-12T09:17:55.573Z,2.25
2022-09-12T09:23:40.761Z,1.60
2022-09-12T09:26:35.932Z,1.40
2022-09-12T09:29:11.195Z,1.93
2022-09-12T09:31:39.158Z,1.95
2022-09-12T09:34:28.275Z,1.52
2022-09-12T09:37:40.487Z,1.60
2022-09-12T09:40:19.668Z,1.40
2022-09-12T09:43:04.597Z,1.30
2022-09-12T09:45:31.872Z,1.40
2022-09-12T09:48:10.604Z,1.17
2022-09-12T09:50:38.133Z,1.30
2022-09-12T09:53:09.365Z,1.20
2022-09-12T09:55:42.314Z,1.30
2022-09-12T09:58:09.071Z,1.30
2022-09-12T10:00:37.521Z,1.40
2022-09-12T10:03:10.243Z,1.65
2022-09-12T10:08:43.600Z,2.00
2022-09-12T10:14:03.379Z,1.40
2022-09-12T10:16:47.567Z,1.30
2022-09-12T10:19:22.640Z,1.20
2022-09-12T10:24:42.464Z,1.30
2022-09-12T10:27:11.926Z,1.20
2022-09-12T10:29:52.611Z,1.20
2022-09-12T10:35:20.951Z,1.30
2022-09-12T10:38:14.506Z,1.20
2022-09-12T10:40:43.721Z,1.10
2022-09-12T10:43:25.887Z,3.92
2022-09-12T10:45:57.754Z,2.40
2022-09-12T10:48:31.130Z,1.23
2022-09-12T10:50:59.332Z,1.15
2022-09-12T10:56:32.730Z,1.30
2022-09-12T10:59:02.157Z,1.38
2022-09-12T11:01:31.726Z,1.20
2022-09-12T11:04:47.023Z,1.10
2022-09-12T11:07:50.876Z,1.10
2022-09-12T11:10:25.825Z,1.50
2022-09-12T11:13:03.995Z,1.55
2022-09-12T11:15:37.518Z,1.53
2022-09-12T11:18:22.931Z,1.50
2022-09-12T11:21:17.345Z,2.30
2022-09-12T11:24:02.583Z,1.38
2022-09-12T11:26:47.416Z,1.40
2022-09-12T11:29:30.399Z,1.20
2022-09-12T11:32:12.223Z,1.30
2022-09-12T11:37:59.453Z,1.60
2022-09-12T11:40:42.414Z,1.40
2022-09-12T11:43:23.981Z,1.20
2022-09-12T11:52:02.200Z,1.50
2022-09-12T11:54:42.848Z,1.20
2022-09-12T12:00:20.775Z,1.20
2022-09-12T12:03:38.309Z,1.02
2022-09-12T12:06:30.249Z,1.20
2022-09-12T12:08:57.506Z,1.30
2022-09-12T12:11:33.215Z,1.20
2022-09-12T12:14:06.452Z,1.20
2022-09-12T12:19:36.755Z,1.30
2022-09-12T12:22:24.755Z,1.30
2022-09-12T12:28:00.439Z,1.15
2022-09-12T12:30:30.279Z,1.05
2022-09-12T12:33:19.992Z,1.10
2022-09-12T12:36:03.438Z,1.10
2022-09-12T12:38:40.655Z,1.20
2022-09-12T12:41:19.343Z,1.02
2022-09-12T12:43:47.291Z,0.90
2022-09-12T12:46:21.127Z,1.10
2022-09-12T12:52:17.013Z,1.30
2022-09-12T12:54:43.713Z,1.45
2022-09-12T12:57:13.434Z,1.00
2022-09-12T13:00:13.654Z,1.20
2022-09-12T13:02:50.581Z,1.00
2022-09-12T13:05:22.992Z,1.10
2022-09-12T13:08:06.256Z,1.10
2022-09-12T13:10:33.493Z,1.00
2022-09-12T13:13:04.794Z,1.10
2022-09-12T13:15:37.347Z,1.00
2022-09-12T13:18:20.903Z,1.00
2022-09-12T13:20:31.794Z,0
2022-09-12T13:20:55.553Z,1.02
2022-09-12T13:23:30.912Z,1.00
2022-09-12T13:25:59.543Z,1.20
2022-09-12T13:28:28.318Z,0.90
2022-09-12T13:30:57.294Z,1.10
2022-09-12T13:33:48.849Z,1.02
2022-09-12T13:36:30.601Z,1.07
2022-09-12T13:39:09.155Z,1.30
2022-09-12T13:42:15.003Z,1.20
2022-09-12T13:47:37.898Z,1.30
2022-09-12T13:50:07.524Z,1.10
2022-09-12T13:52:37.240Z,1.27
2022-09-12T13:55:14.442Z,1.10
2022-09-12T14:00:30.196Z,1.27
2022-09-12T14:05:48.171Z,1.30
2022-09-12T14:09:26.059Z,0
2022-09-12T14:11:08.673Z,1.20
2022-09-12T14:13:35.501Z,2.00
2022-09-12T14:16:02.690Z,1.05
2022-09-12T14:18:32.703Z,1.70
2022-09-12T14:23:54.606Z,1.10
2022-09-12T14:29:09.167Z,1.00
2022-09-12T14:34:24.707Z,1.10
2022-09-12T14:39:44.503Z,1.10
2022-09-12T14:42:25.195Z,1.10
2022-09-12T14:45:15.768Z,1.40
2022-09-12T14:47:43.726Z,1.00
2022-09-12T14:50:17.962Z,1.40
2022-09-12T14:55:33.481Z,1.10
2022-09-12T14:58:14.541Z,1.20
2022-09-12T15:01:01.164Z,1.20
2022-09-12T15:03:34.049Z,1.13
2022-09-12T15:06:02.676Z,1.00
2022-09-12T15:11:17.035Z,1.08
2022-09-12T15:13:43.755Z,1.10
2022-09-12T15:16:11.819Z,1.10
2022-09-12T15:18:39.048Z,1.10
2022-09-12T15:23:54.854Z,1.00
2022-09-12T15:26:23.613Z,1.10
2022-09-12T15:28:51.346Z,1.70
2022-09-12T15:31:29.794Z,1.70
2022-09-12T15:33:58.913Z,1.58
2022-09-12T15:36:26.410Z,2.60
2022-09-12T15:38:53.476Z,2.20
2022-09-12T15:41:28.254Z,1.70
2022-09-12T15:43:55.140Z,1.60
2022-09-12T15:46:21.934Z,2.10
2022-09-12T15:48:48.796Z,1.90
2022-09-12T15:51:18.026Z,1.63
2022-09-12T15:53:45.867Z,1.58
2022-09-12T15:56:13.958Z,1.30
2022-09-12T15:58:57.239Z,1.25
2022-09-12T16:04:38.027Z,1.30
2022-09-12T16:07:04.800Z,2.97
2022-09-12T16:09:31.625Z,1.80
2022-09-12T16:14:45.086Z,1.60
2022-09-12T16:19:58.678Z,1.92
2022-09-12T16:22:25.456Z,2.40
2022-09-12T16:24:52.176Z,1.80
2022-09-12T16:27:19.075Z,1.40
2022-09-12T16:29:45.884Z,1.30
2022-09-12T16:32:12.672Z,1.50
2022-09-12T16:34:39.401Z,1.30
2022-09-12T16:37:06.145Z,1.50
2022-09-12T16:39:32.857Z,1.80
2022-09-12T16:41:59.594Z,1.40
2022-09-12T16:44:26.320Z,2.00
2022-09-12T16:49:39.828Z,2.10
2022-09-12T16:49:59.860Z,0
2022-09-12T16:54:33.688Z,2.30
2022-09-12T16:57:00.460Z,2.20
2022-09-12T16:59:27.201Z,2.50
2022-09-12T17:01:54.022Z,3.05
2022-09-12T17:04:23.605Z,3.17
2022-09-12T17:06:50.658Z,2.00
2022-09-12T17:09:17.426Z,1.80
2022-09-12T17:11:45.552Z,1.70
2022-09-12T17:14:12.550Z,1.60
2022-09-12T17:16:42.195Z,1.50
2022-09-12T17:19:12.067Z,1.83
2022-09-12T17:24:25.699Z,1.48
2022-09-12T17:26:52.533Z,1.50
2022-09-12T17:29:22.972Z,1.40
2022-09-12T17:31:49.675Z,2.40
2022-09-12T17:37:03.372Z,1.50
2022-09-12T17:39:30.110Z,1.50
2022-09-12T17:41:57.826Z,1.70
2022-09-12T17:44:24.631Z,1.70
2022-09-12T17:46:51.393Z,1.60
2022-09-12T17:49:18.401Z,1.50
2022-09-12T17:54:31.964Z,2.70
2022-09-12T17:56:58.669Z,3.70
2022-09-12T17:59:25.613Z,2.00
2022-09-12T18:01:52.443Z,1.60
2022-09-12T18:04:19.654Z,4.15
2022-09-12T18:06:46.803Z,4.30
2022-09-12T18:09:14.686Z,2.23
2022-09-12T18:11:41.411Z,1.65
2022-09-12T18:14:11.360Z,1.70
2022-09-12T18:16:41.042Z,1.60
2022-09-12T18:19:07.811Z,1.80
2022-09-12T18:21:34.620Z,1.90
2022-09-12T18:24:01.814Z,1.70
2022-09-12T18:26:29.926Z,1.88
2022-09-12T18:28:57.682Z,1.40
2022-09-12T18:31:26.523Z,1.70
2022-09-12T18:36:41.416Z,1.65
2022-09-12T18:41:55.441Z,1.80
2022-09-12T18:44:22.145Z,1.60
2022-09-12T18:46:48.935Z,1.25
2022-09-12T18:49:15.707Z,1.40
2022-09-12T18:51:42.463Z,1.40
2022-09-12T18:54:13.837Z,1.50
2022-09-12T18:56:40.666Z,1.30
2022-09-12T18:59:07.823Z,1.30
2022-09-12T19:01:37.412Z,1.30
2022-09-12T19:04:05.873Z,1.50
2022-09-12T19:09:22.609Z,1.40
2022-09-12T19:11:49.884Z,1.40
2022-09-12T19:14:22.095Z,1.40
2022-09-12T19:16:50.156Z,1.42
2022-09-12T19:22:03.772Z,2.50
2022-09-12T19:24:30.517Z,1.70
2022-09-12T19:26:57.288Z,1.60
2022-09-12T19:29:24.519Z,1.70
2022-09-12T19:31:52.438Z,1.80
2022-09-12T19:34:19.133Z,1.70
2022-09-12T19:36:47.336Z,2.00
2022-09-12T19:36:47.911Z,0
2022-09-12T19:39:16.241Z,1.60
2022-09-12T19:41:43.722Z,1.63
2022-09-12T19:46:57.091Z,1.40
2022-09-12T19:52:11.862Z,1.60
2022-09-12T19:57:27.842Z,1.60
2022-09-12T19:59:54.562Z,2.35
2022-09-12T20:02:21.402Z,2.08
2022-09-12T20:04:48.127Z,2.80
2022-09-12T20:07:14.832Z,1.75
2022-09-12T20:09:44.305Z,1.50
2022-09-12T20:12:11.146Z,1.50
2022-09-12T20:14:37.936Z,1.60
2022-09-12T20:17:04.651Z,1.60
2022-09-12T20:19:31.415Z,1.83
2022-09-12T20:21:58.229Z,1.90
2022-09-12T20:24:25.587Z,1.90
2022-09-12T20:26:52.829Z,2.00
2022-09-12T20:29:19.520Z,2.50
2022-09-12T20:31:46.467Z,1.90
2022-09-12T20:34:19.247Z,1.90
2022-09-12T20:36:46.677Z,2.10
2022-09-12T20:39:19.284Z,1.90
2022-09-12T20:41:46.065Z,1.70
2022-09-12T20:44:13.029Z,1.70
2022-09-12T20:46:39.916Z,2.10
2022-09-12T20:49:07.012Z,1.90
2022-09-12T20:51:33.819Z,2.00
2022-09-12T20:54:02.250Z,2.00
2022-09-12T20:56:29.605Z,1.60
2022-09-12T20:58:56.976Z,1.80
2022-09-12T21:01:25.160Z,1.80
2022-09-12T21:03:52.300Z,2.10
2022-09-12T21:06:19.464Z,2.00
2022-09-12T21:08:47.809Z,1.73
2022-09-12T21:11:15.263Z,2.10
2022-09-12T21:13:42.041Z,2.10
2022-09-12T21:16:15.375Z,2.00
2022-09-12T21:18:42.781Z,2.10
2022-09-12T21:23:59.227Z,2.28
2022-09-12T21:29:12.736Z,3.20
2022-09-12T21:34:26.144Z,2.10
2022-09-12T21:36:52.835Z,2.10
2022-09-12T21:39:19.566Z,1.95
2022-09-12T21:41:46.256Z,2.10
2022-09-12T21:44:13.001Z,1.80
2022-09-12T21:46:39.772Z,1.90
2022-09-12T21:49:06.709Z,1.70
2022-09-12T21:51:33.464Z,2.00
2022-09-12T21:54:00.157Z,2.00
2022-09-12T21:56:26.869Z,1.90
2022-09-12T21:58:53.631Z,1.80
2022-09-12T22:01:20.491Z,2.20
2022-09-12T22:03:47.466Z,1.90
2022-09-12T22:06:14.374Z,2.10
2022-09-12T22:08:41.447Z,2.20
2022-09-12T22:11:09.770Z,2.30
2022-09-12T22:13:41.516Z,2.22
2022-09-12T22:16:08.490Z,2.08
2022-09-12T22:18:36.707Z,1.95
2022-09-12T22:21:07.347Z,2.10
2022-09-12T22:23:34.131Z,2.10
2022-09-12T22:26:03.081Z,2.05
2022-09-12T22:28:29.852Z,2.10
2022-09-12T22:33:43.597Z,2.20
2022-09-12T22:38:57.391Z,2.10
2022-09-12T22:44:11.284Z,2.25
2022-09-12T22:46:38.785Z,2.33
2022-09-12T22:49:06.943Z,2.40
2022-09-12T22:51:34.084Z,2.30
2022-09-12T22:54:00.861Z,2.30
2022-09-12T22:59:14.807Z,2.30
2022-09-12T23:04:28.230Z,2.30
2022-09-12T23:06:55.622Z,2.33
2022-09-12T23:09:22.566Z,2.50
2022-09-12T23:11:49.371Z,2.50
2022-09-12T23:14:16.149Z,2.45
2022-09-12T23:16:42.890Z,2.63
2022-09-12T23:19:09.642Z,2.45
2022-09-12T23:21:36.402Z,2.67
2022-09-12T23:24:03.527Z,2.40
2022-09-12T23:26:30.273Z,2.80
2022-09-12T23:31:51.651Z,2.50
2022-09-12T23:34:18.632Z,2.95
2022-09-12T23:36:45.440Z,2.75
2022-09-12T23:39:12.241Z,2.80
2022-09-12T23:41:38.933Z,2.83
2022-09-12T23:44:05.675Z,2.90
2022-09-12T23:46:32.428Z,3.35
2022-09-12T23:48:59.164Z,2.90
2022-09-12T23:51:25.921Z,2.70
2022-09-12T23:53:52.663Z,2.60
2022-09-12T23:56:19.513Z,2.80
2022-09-12T23:58:46.231Z,2.90
